Time;durP1;ratioP1;P1;durP2;ratioP2;P2;SDS_P1;SDS_P2;PMS_P1;PMS_P2;Temp;Humidity;BMP_temperature;BMP_pressure;BME280_temperature;BME280_humidity;BME280_pressure;Samples;Min_cycle;Max_cycle;Signal;HPM_P1;HPM_P2
2022/07/13 00:01:25;;;;;;;5.10;1.70;;;13.80;99.90;;;;;;4432326;28;656237;-64
2022/07/13 00:04:12;;;;;;;6.30;1.80;;;13.90;99.90;;;;;;4408490;28;657528;-64
2022/07/13 00:07:01;;;;;;;6.10;2.10;;;13.90;99.90;;;;;;4431487;28;656575;-65
2022/07/13 00:09:48;;;;;;;2.73;1.57;;;13.80;99.90;;;;;;4435763;28;656879;-64
2022/07/13 00:12:36;;;;;;;5.23;1.77;;;13.70;99.90;;;;;;4416670;28;656707;-65
2022/07/13 00:15:23;;;;;;;4.00;1.83;;;13.60;99.90;;;;;;4439474;28;657451;-64
2022/07/13 00:18:10;;;;;;;4.20;1.57;;;13.60;99.90;;;;;;4424751;28;656849;-65
2022/07/13 00:20:57;;;;;;;10.53;1.87;;;13.50;99.90;;;;;;4439754;28;656214;-64
2022/07/13 00:23:46;;;;;;;5.47;2.10;;;13.50;99.90;;;;;;4431486;28;657292;-65
2022/07/13 00:26:33;;;;;;;3.67;1.93;;;13.30;99.90;;;;;;4435329;28;656987;-64
2022/07/13 00:29:21;;;;;;;3.53;1.70;;;13.20;99.90;;;;;;4416410;28;656873;-65
2022/07/13 00:32:08;;;;;;;4.93;1.90;;;13.10;99.90;;;;;;4439435;28;657447;-64
2022/07/13 00:34:55;;;;;;;3.50;1.80;;;12.90;99.90;;;;;;4425691;28;657039;-66
2022/07/13 00:37:43;;;;;;;4.40;2.17;;;12.80;99.90;;;;;;4439242;28;656896;-64
2022/07/13 00:40:31;;;;;;;5.40;1.80;;;12.80;99.90;;;;;;4416761;28;656707;-65
2022/07/13 00:43:19;;;;;;;6.57;2.20;;;12.80;99.90;;;;;;4434964;28;658217;-64
2022/07/13 00:46:06;;;;;;;4.67;1.87;;;12.80;99.90;;;;;;4425810;28;657010;-65
2022/07/13 00:48:53;;;;;;;4.23;2.20;;;12.60;99.90;;;;;;4455914;28;657894;-65
2022/07/13 00:51:40;;;;;;;6.25;1.98;;;12.50;99.90;;;;;;4431510;28;656988;-65
2022/07/13 00:54:29;;;;;;;7.38;1.73;;;12.40;99.90;;;;;;4448841;28;656040;-64
2022/07/13 00:57:17;;;;;;;10.80;2.93;;;12.30;99.90;;;;;;4433851;28;657169;-64
2022/07/13 01:00:05;;;;;;;6.60;2.10;;;12.20;99.90;;;;;;4450869;28;658312;-64
2022/07/13 01:02:52;;;;;;;5.07;2.17;;;12.20;99.90;;;;;;4433947;28;658149;-64
2022/07/13 01:05:39;;;;;;;5.60;2.23;;;12.10;99.90;;;;;;4456578;28;655823;-64
2022/07/13 01:08:26;;;;;;;4.70;1.93;;;12.00;99.90;;;;;;4433294;28;657237;-64
2022/07/13 01:11:14;;;;;;;7.17;2.30;;;11.90;99.90;;;;;;4452335;28;656257;-64
2022/07/13 01:14:02;;;;;;;9.20;2.27;;;11.90;99.90;;;;;;4433141;28;657045;-64
2022/07/13 01:16:50;;;;;;;8.93;2.13;;;11.70;99.90;;;;;;4448569;28;656293;-66
2022/07/13 01:19:37;;;;;;;3.83;2.00;;;11.60;99.90;;;;;;4449369;28;656976;-64
2022/07/13 01:22:25;;;;;;;6.87;2.00;;;11.50;99.90;;;;;;4452506;28;657055;-64
2022/07/13 01:25:14;;;;;;;3.57;1.73;;;11.40;99.90;;;;;;4429322;28;658186;-64
2022/07/13 01:28:01;;;;;;;5.93;2.10;;;11.30;99.90;;;;;;4432935;28;658589;-64
2022/07/13 01:30:49;;;;;;;7.97;2.10;;;11.20;99.90;;;;;;4451710;28;657216;-64
2022/07/13 01:33:37;;;;;;;14.23;2.10;;;11.20;99.90;;;;;;4430808;28;656608;-64
2022/07/13 01:36:24;;;;;;;13.17;2.40;;;11.00;99.90;;;;;;4441451;28;657700;-64
2022/07/13 01:39:11;;;;;;;5.67;2.20;;;11.00;99.90;;;;;;4431387;28;657615;-64
2022/07/13 01:42:00;;;;;;;6.80;2.57;;;10.90;99.90;;;;;;4452020;28;656506;-64
2022/07/13 01:44:48;;;;;;;6.73;2.20;;;10.80;99.90;;;;;;4427759;28;658032;-64
2022/07/13 01:47:38;;;;;;;6.47;2.43;;;10.80;99.90;;;;;;4414001;28;656697;-65
2022/07/13 01:50:27;;;;;;;6.60;2.13;;;10.70;99.90;;;;;;4420484;28;656520;-65
2022/07/13 01:53:14;;;;;;;10.80;2.17;;;10.70;99.90;;;;;;4438429;28;655962;-64
2022/07/13 01:56:01;;;;;;;8.60;3.10;;;10.70;99.90;;;;;;4413741;28;658139;-64
2022/07/13 01:58:49;;;;;;;9.57;2.83;;;10.60;99.90;;;;;;4433967;28;657727;-64
2022/07/13 02:01:36;;;;;;;5.70;2.43;;;10.60;99.90;;;;;;4414932;28;656207;-64
2022/07/13 02:04:24;;;;;;;7.07;2.80;;;10.60;99.90;;;;;;4433625;28;656528;-64
2022/07/13 02:07:11;;;;;;;6.37;2.50;;;10.70;99.90;;;;;;4414906;28;656276;-64
2022/07/13 02:09:58;;;;;;;5.13;2.57;;;10.70;99.90;;;;;;4436517;28;656663;-64
2022/07/13 02:12:45;;;;;;;5.50;2.97;;;10.70;99.90;;;;;;4414778;28;656442;-66
2022/07/13 02:15:33;;;;;;;6.93;2.88;;;10.70;99.90;;;;;;4437607;28;657155;-64
2022/07/13 02:18:21;;;;;;;5.93;2.30;;;10.80;99.90;;;;;;4414657;28;656961;-64
2022/07/13 02:21:08;;;;;;;6.20;2.70;;;10.80;99.90;;;;;;4433786;28;657756;-64
2022/07/13 02:23:55;;;;;;;8.00;2.70;;;10.80;99.90;;;;;;4414691;28;656588;-65
2022/07/13 02:26:42;;;;;;;6.30;2.40;;;11.10;99.90;;;;;;4433800;28;657287;-64
2022/07/13 02:29:29;;;;;;;10.17;3.00;;;11.10;99.90;;;;;;4433606;28;656647;-64
2022/07/13 02:32:18;;;;;;;8.13;2.37;;;11.20;99.90;;;;;;4413264;28;657608;-64
2022/07/13 02:35:06;;;;;;;8.63;2.33;;;11.20;99.90;;;;;;4416319;28;656907;-66
2022/07/13 02:37:53;;;;;;;7.67;2.80;;;11.20;99.90;;;;;;4434689;28;657417;-65
2022/07/13 02:40:40;;;;;;;6.13;2.57;;;11.30;99.90;;;;;;4414457;28;656598;-66
2022/07/13 02:43:27;;;;;;;3.73;2.13;;;11.40;99.90;;;;;;4437483;28;657060;-65
2022/07/13 02:46:14;;;;;;;11.87;2.50;;;11.40;99.90;;;;;;4443765;28;656925;-65
2022/07/13 02:49:03;;;;;;;4.87;2.30;;;11.50;99.90;;;;;;4429474;28;658176;-65
2022/07/13 02:51:50;;;;;;;6.47;2.00;;;11.60;99.90;;;;;;4436416;28;657135;-66
2022/07/13 02:54:37;;;;;;;6.95;2.40;;;11.80;99.90;;;;;;4454710;28;657158;-65
2022/07/13 02:57:24;;;;;;;3.97;2.10;;;11.90;99.90;;;;;;4450597;28;656621;-65
2022/07/13 03:00:12;;;;;;;6.30;2.00;;;12.10;99.90;;;;;;4427898;28;657787;-65
2022/07/13 03:02:59;;;;;;;10.40;2.03;;;12.20;99.90;;;;;;4450383;28;656768;-65
2022/07/13 03:05:47;;;;;;;6.53;2.40;;;12.10;99.90;;;;;;4430416;28;657648;-65
2022/07/13 03:08:35;;;;;;;5.90;2.30;;;12.10;99.90;;;;;;4446533;28;656221;-66
2022/07/13 03:11:22;;;;;;;4.63;2.10;;;12.20;99.90;;;;;;4454385;28;656771;-64
2022/07/13 03:14:09;;;;;;;8.00;2.30;;;12.10;99.90;;;;;;4450367;28;656471;-65
2022/07/13 03:16:56;;;;;;;4.17;1.87;;;12.10;99.90;;;;;;4431404;28;656648;-65
2022/07/13 03:19:44;;;;;;;12.40;2.47;;;12.20;99.90;;;;;;4450159;28;656831;-65
2022/07/13 03:22:32;;;;;;;4.10;1.97;;;12.20;99.90;;;;;;4430347;28;657479;-65
2022/07/13 03:25:19;;;;;;;7.13;2.67;;;12.10;99.90;;;;;;4449935;28;656804;-64
2022/07/13 03:28:06;;;;;;;3.65;2.17;;;12.20;99.90;;;;;;4430685;28;656530;-65
2022/07/13 03:30:53;;;;;;;3.97;2.50;;;12.30;99.90;;;;;;4450345;28;657825;-65
2022/07/13 03:33:40;;;;;;;2.80;2.10;;;12.40;99.90;;;;;;4430782;28;657218;-65
2022/07/13 03:36:28;;;;;;;5.03;2.03;;;12.40;99.90;;;;;;4454582;28;656777;-65
2022/07/13 03:39:16;;;;;;;5.87;2.20;;;12.40;99.90;;;;;;4438655;28;656820;-66
2022/07/13 03:42:04;;;;;;;5.73;2.30;;;12.50;99.90;;;;;;4449549;28;657020;-65
2022/07/13 03:44:51;;;;;;;4.47;2.03;;;12.60;99.90;;;;;;4431110;28;656542;-65
2022/07/13 03:47:38;;;;;;;5.38;2.08;;;12.60;99.90;;;;;;4444236;28;657433;-65
2022/07/13 03:50:25;;;;;;;3.57;1.80;;;12.60;99.90;;;;;;4430962;28;656242;-65
2022/07/13 03:53:12;;;;;;;4.60;2.30;;;12.60;99.90;;;;;;4450111;28;658058;-65
2022/07/13 03:56:01;;;;;;;3.23;2.07;;;12.60;99.90;;;;;;4454350;28;655640;-65
2022/07/13 03:58:48;;;;;;;4.97;2.37;;;12.60;99.90;;;;;;4427112;28;657097;-64
2022/07/13 04:01:35;;;;;;;6.60;2.60;;;12.70;99.90;;;;;;4432994;28;656651;-67
2022/07/13 04:04:22;;;;;;;6.50;2.40;;;12.80;99.90;;;;;;4453728;28;657286;-65
2022/07/13 04:07:09;;;;;;;4.03;2.60;;;12.80;99.90;;;;;;4450282;28;656747;-65
2022/07/13 04:09:56;;;;;;;8.03;2.77;;;12.80;99.90;;;;;;4427168;28;658003;-65
2022/07/13 04:12:45;;;;;;;4.30;2.50;;;12.80;99.90;;;;;;4449418;28;656881;-65
2022/07/13 04:15:32;;;;;;;4.90;2.03;;;12.80;99.90;;;;;;4426801;28;656956;-65
2022/07/13 04:18:19;;;;;;;4.87;2.57;;;12.80;99.90;;;;;;4449306;28;656701;-65
2022/07/13 04:21:07;;;;;;;4.50;2.30;;;13.00;99.90;;;;;;4431177;28;656849;-65
2022/07/13 04:23:54;;;;;;;3.90;2.80;;;13.10;99.90;;;;;;4449684;28;656778;-65
2022/07/13 04:26:41;;;;;;;6.50;2.45;;;13.10;99.90;;;;;;4430958;28;656557;-65
2022/07/13 04:29:30;;;;;;;6.47;2.60;;;13.20;99.90;;;;;;4450061;28;657568;-65
2022/07/13 04:32:17;;;;;;;8.20;2.63;;;13.30;99.90;;;;;;4426632;28;657571;-65
2022/07/13 04:35:04;;;;;;;8.63;2.93;;;13.30;99.90;;;;;;4449856;28;656687;-65
2022/07/13 04:37:52;;;;;;;9.73;2.83;;;13.20;99.90;;;;;;4430618;28;656851;-65
2022/07/13 04:40:39;;;;;;;10.20;2.73;;;13.40;99.90;;;;;;4449611;28;656899;-65
2022/07/13 04:43:27;;;;;;;7.50;3.20;;;13.50;99.90;;;;;;4429455;28;658350;-66
2022/07/13 04:46:15;;;;;;;8.33;3.50;;;13.50;99.90;;;;;;4449310;28;656726;-65
2022/07/13 04:49:02;;;;;;;9.37;3.33;;;13.50;99.90;;;;;;4423423;28;657716;-65
2022/07/13 04:51:50;;;;;;;6.03;3.20;;;13.50;99.90;;;;;;4446264;28;656723;-67
2022/07/13 04:54:37;;;;;;;12.03;3.87;;;13.50;99.90;;;;;;4456686;28;657190;-65
2022/07/13 04:57:24;;;;;;;12.53;3.93;;;13.60;99.90;;;;;;4451250;28;657471;-65
2022/07/13 05:00:12;;;;;;;7.47;3.23;;;13.70;99.90;;;;;;4432433;28;657792;-65
2022/07/13 05:03:01;;;;;;;8.87;3.47;;;13.80;99.90;;;;;;4452775;28;656476;-65
2022/07/13 05:05:48;;;;;;;4.27;1.97;;;13.80;99.90;;;;;;4429539;28;656942;-65
2022/07/13 05:08:35;;;;;;;9.75;3.35;;;13.90;99.90;;;;;;4438397;28;656656;-66
2022/07/13 05:11:22;;;;;;;7.57;3.30;;;14.20;99.90;;;;;;4456475;28;657411;-66
2022/07/13 05:14:09;;;;;;;7.90;2.97;;;14.30;99.90;;;;;;4452411;28;657091;-65
2022/07/13 05:16:56;;;;;;;6.17;2.70;;;14.40;99.90;;;;;;4433657;28;656604;-65
2022/07/13 05:19:45;;;;;;;7.97;2.70;;;14.40;99.90;;;;;;4447217;28;656806;-65
2022/07/13 05:22:32;;;;;;;7.40;3.07;;;14.60;99.90;;;;;;4429289;28;658196;-65
2022/07/13 05:25:20;;;;;;;6.27;3.10;;;14.70;99.90;;;;;;4452231;28;657398;-65
2022/07/13 05:28:07;;;;;;;6.87;2.73;;;14.80;99.90;;;;;;4426280;28;656681;-65
2022/07/13 05:30:55;;;;;;;6.90;3.30;;;15.00;99.90;;;;;;4448803;28;656382;-66
2022/07/13 05:33:42;;;;;;;5.07;2.70;;;15.20;99.90;;;;;;4456024;28;656836;-65
2022/07/13 05:36:31;;;;;;;5.67;2.97;;;15.40;99.90;;;;;;4452170;28;656708;-65
2022/07/13 05:39:18;;;;;;;4.40;2.17;;;15.40;99.90;;;;;;4429326;28;657455;-65
2022/07/13 05:42:05;;;;;;;7.27;2.90;;;15.60;99.90;;;;;;4435789;28;656973;-66
2022/07/13 05:44:52;;;;;;;7.03;2.73;;;15.60;99.90;;;;;;4455556;28;656566;-66
2022/07/13 05:47:44;;;;;;;7.23;2.63;;;15.80;99.90;;;;;;4446172;28;656670;-65
2022/07/13 05:50:31;;;;;;;9.73;3.13;;;15.90;99.90;;;;;;4432588;28;656586;-65
2022/07/13 05:53:20;;;;;;;5.60;2.40;;;15.80;99.90;;;;;;4451564;28;657352;-65
2022/07/13 05:56:07;;;;;;;5.50;2.50;;;16.00;99.90;;;;;;4428842;28;657358;-66
2022/07/13 05:58:55;;;;;;;4.83;2.80;;;16.10;99.90;;;;;;4447100;28;656840;-66
2022/07/13 06:01:42;;;;;;;11.30;2.90;;;16.30;99.90;;;;;;4455589;28;657036;-65
2022/07/13 06:04:29;;;;;;;9.17;2.33;;;16.40;99.90;;;;;;4450520;28;657562;-65
2022/07/13 06:07:16;;;;;;;4.50;2.60;;;16.50;99.90;;;;;;4428925;28;656542;-66
2022/07/13 06:10:05;;;;;;;8.20;2.90;;;16.50;99.90;;;;;;4451280;28;657377;-66
2022/07/13 06:12:53;;;;;;;5.20;2.80;;;16.60;99.90;;;;;;4428415;28;657075;-65
2022/07/13 06:15:40;;;;;;;4.57;2.60;;;16.70;99.90;;;;;;4443591;28;656708;-67
2022/07/13 06:18:27;;;;;;;5.78;2.50;;;16.80;99.90;;;;;;4455679;28;656154;-66
2022/07/13 06:21:14;;;;;;;6.13;2.93;;;16.90;99.90;;;;;;4451391;28;657008;-65
2022/07/13 06:24:02;;;;;;;6.90;2.53;;;16.90;99.90;;;;;;4432512;28;656483;-65
2022/07/13 06:26:50;;;;;;;5.33;2.47;;;17.10;99.90;;;;;;4451319;28;656468;-66
2022/07/13 06:29:37;;;;;;;3.53;2.07;;;17.30;99.90;;;;;;4432544;28;657409;-65
2022/07/13 06:32:24;;;;;;;6.37;2.47;;;17.50;99.90;;;;;;4451175;28;657091;-65
2022/07/13 06:35:12;;;;;;;3.73;2.27;;;17.60;99.90;;;;;;4428930;28;656453;-65
2022/07/13 06:37:59;;;;;;;4.27;2.50;;;17.60;99.90;;;;;;4455037;28;656254;-66
2022/07/13 06:40:47;;;;;;;6.80;2.50;;;17.60;99.90;;;;;;4432131;28;656923;-66
2022/07/13 06:43:36;;;;;;;4.03;2.00;;;17.70;99.90;;;;;;4450892;28;656978;-65
2022/07/13 06:46:23;;;;;;;4.40;1.80;;;18.10;99.90;;;;;;4428069;28;657101;-66
2022/07/13 06:49:10;;;;;;;7.20;2.50;;;18.30;99.90;;;;;;4431978;28;657203;-67
2022/07/13 06:51:57;;;;;;;3.20;2.17;;;18.10;99.90;;;;;;4451266;28;657727;-65
2022/07/13 06:54:44;;;;;;;5.53;2.50;;;18.20;99.90;;;;;;4450981;28;656465;-66
2022/07/13 06:57:31;;;;;;;5.53;2.33;;;18.10;99.90;;;;;;4431776;28;656416;-66
2022/07/13 07:00:20;;;;;;;6.00;2.60;;;18.10;99.90;;;;;;4450829;28;656261;-66
2022/07/13 07:03:07;;;;;;;7.93;2.37;;;18.40;99.90;;;;;;4432044;28;657855;-66
2022/07/13 07:05:55;;;;;;;4.27;2.43;;;18.60;99.90;;;;;;4450778;28;656842;-66
2022/07/13 07:08:42;;;;;;;5.73;2.17;;;18.70;99.90;;;;;;4431007;28;657674;-65
2022/07/13 07:11:29;;;;;;;7.20;2.10;;;18.90;99.90;;;;;;4450488;28;656874;-66
2022/07/13 07:14:16;;;;;;;9.38;2.47;;;19.20;99.90;;;;;;4431264;28;656745;-66
2022/07/13 07:17:05;;;;;;;2.23;1.43;;;19.30;99.90;;;;;;4450811;28;657810;-65
2022/07/13 07:19:52;;;;;;;4.20;1.77;;;19.40;99.90;;;;;;4427673;28;658245;-66
2022/07/13 07:22:39;;;;;;;2.67;1.50;;;19.20;99.90;;;;;;4450496;28;656575;-65
2022/07/13 07:25:26;;;;;;;2.97;1.50;;;19.30;99.90;;;;;;4431527;28;656305;-66
2022/07/13 07:28:14;;;;;;;4.40;1.47;;;19.60;99.90;;;;;;4450263;28;656409;-65
2022/07/13 07:31:01;;;;;;;3.63;1.73;;;19.50;99.90;;;;;;4431710;28;656174;-66
2022/07/13 07:33:49;;;;;;;8.50;1.90;;;19.60;99.90;;;;;;4450558;28;657521;-66
2022/07/13 07:36:36;;;;;;;5.03;1.80;;;19.70;99.90;;;;;;4427853;28;656689;-66
2022/07/13 07:39:23;;;;;;;2.40;1.40;;;19.90;99.90;;;;;;4450573;28;656940;-66
2022/07/13 07:42:10;;;;;;;3.17;1.73;;;19.80;99.90;;;;;;4431144;28;657237;-65
2022/07/13 07:44:57;;;;;;;7.10;1.70;;;20.00;99.90;;;;;;4449483;28;658069;-66
2022/07/13 07:47:45;;;;;;;2.53;1.73;;;20.10;99.90;;;;;;4439891;28;656661;-67
2022/07/13 07:50:34;;;;;;;4.27;1.50;;;20.30;99.90;;;;;;4454302;28;656548;-66
2022/07/13 07:53:21;;;;;;;5.20;1.40;;;20.40;99.90;;;;;;4431365;28;657108;-67
2022/07/13 07:56:08;;;;;;;2.90;1.50;;;20.60;99.90;;;;;;4454256;28;657227;-66
2022/07/13 07:58:55;;;;;;;1.60;1.47;;;20.60;99.90;;;;;;4435705;28;656437;-67
2022/07/13 08:01:42;;;;;;;1.20;0.97;;;20.50;99.90;;;;;;4454384;28;657014;-66
2022/07/13 08:04:30;;;;;;;5.93;1.47;;;20.40;99.90;;;;;;4449828;28;656948;-67
2022/07/13 08:07:18;;;;;;;4.50;1.05;;;20.80;99.90;;;;;;4454379;28;656458;-67
2022/07/13 08:10:07;;;;;;;4.03;1.30;;;20.50;99.90;;;;;;4431031;28;657057;-66
2022/07/13 08:12:54;;;;;;;4.20;1.23;;;20.90;99.90;;;;;;4450027;28;656069;-66
2022/07/13 08:15:41;;;;;;;2.97;0.90;;;21.20;99.90;;;;;;4431237;28;656511;-66
2022/07/13 08:18:28;;;;;;;1.57;0.90;;;21.30;99.90;;;;;;4449826;28;656694;-66
2022/07/13 08:21:15;;;;;;;1.33;0.97;;;21.30;99.90;;;;;;4430925;28;656580;-67
2022/07/13 08:24:04;;;;;;;9.03;1.17;;;21.90;99.90;;;;;;4449895;28;657230;-66
2022/07/13 08:26:52;;;;;;;1.40;0.90;;;21.90;96.70;;;;;;4429972;28;656708;-66
2022/07/13 08:29:40;;;;;;;1.87;0.90;;;21.50;95.70;;;;;;4452917;28;656893;-66
2022/07/13 08:32:27;;;;;;;1.83;0.97;;;21.60;96.20;;;;;;4430209;28;656657;-67
2022/07/13 08:41:15;;;;;;;3.03;1.37;;;21.80;92.30;;;;;;4928633;27;131106;-65
2022/07/13 08:44:02;;;;;;;1.67;1.00;;;21.90;92.60;;;;;;4432505;28;651896;-65
2022/07/13 08:46:49;;;;;;;1.90;0.87;;;22.10;93.40;;;;;;4454457;28;651106;-66
2022/07/13 08:49:36;;;;;;;0.43;0.43;;;21.80;88.30;;;;;;4436120;28;650796;-65
2022/07/13 08:52:23;;;;;;;0.90;0.80;;;22.20;90.70;;;;;;4453775;28;651094;-65
2022/07/13 08:55:10;;;;;;;1.73;1.00;;;22.20;89.90;;;;;;4435880;28;650396;-65
2022/07/13 08:58:00;;;;;;;1.67;1.00;;;21.70;91.40;;;;;;4453229;28;652884;-65
2022/07/13 09:00:47;;;;;;;4.60;1.00;;;21.90;92.20;;;;;;4427122;28;651981;-65
2022/07/13 09:03:35;;;;;;;1.77;1.03;;;22.40;91.50;;;;;;4448413;28;651380;-67
2022/07/13 09:06:41;;;;;;;3.03;0.93;;;22.40;85.30;;;;;;4457111;28;651324;-66
2022/07/13 09:09:33;;;;;;;2.67;1.10;;;22.40;84.40;;;;;;4429263;28;653088;-65
2022/07/13 09:12:21;;;;;;;5.20;1.10;;;22.20;89.30;;;;;;4422165;28;652644;-66
2022/07/13 09:15:10;;;;;;;1.65;0.88;;;22.40;88.10;;;;;;4452105;28;652932;-65
2022/07/13 09:17:57;;;;;;;2.03;0.70;;;23.00;88.90;;;;;;4432615;28;652643;-65
2022/07/13 09:20:46;;;;;;;1.57;0.93;;;23.60;80.10;;;;;;4450683;28;652629;-65
2022/07/13 09:23:33;;;;;;;2.53;0.80;;;23.30;76.70;;;;;;4433023;28;652877;-65
2022/07/13 09:26:21;;;;;;;1.60;0.97;;;23.80;79.60;;;;;;4432916;28;652166;-65
2022/07/13 09:29:08;;;;;;;2.50;0.90;;;23.80;72.60;;;;;;4451179;28;653400;-65
2022/07/13 09:31:58;;;;;;;3.63;1.13;;;23.90;78.40;;;;;;4432134;28;653008;-66
2022/07/13 09:34:53;;;;;;;3.87;1.00;;;23.00;77.60;;;;;;4431957;28;652992;-66
2022/07/13 09:37:41;;;;;;;2.10;0.73;;;22.80;77.10;;;;;;4409453;28;653273;-66
2022/07/13 09:40:28;;;;;;;1.90;0.90;;;22.80;77.60;;;;;;4451222;28;652933;-65
2022/07/13 09:46:20;;;;;;;1.70;0.87;;;23.80;71.40;;;;;;4419067;28;652682;-66
2022/07/13 09:49:08;;;;;;;2.10;0.90;;;23.90;68.70;;;;;;4455789;28;652621;-66
2022/07/13 09:51:56;;;;;;;1.27;0.70;;;24.40;69.00;;;;;;4423935;28;652171;-66
2022/07/13 09:54:44;;;;;;;0.80;0.77;;;24.30;65.00;;;;;;4439612;28;652787;-65
2022/07/13 09:57:32;;;;;;;2.67;1.00;;;24.10;68.10;;;;;;4416978;28;652507;-65
2022/07/13 10:00:21;;;;;;;6.88;1.08;;;24.40;64.70;;;;;;4439370;28;652454;-65
2022/07/13 10:03:08;;;;;;;1.80;1.07;;;24.00;67.30;;;;;;4417158;28;653142;-65
2022/07/13 10:05:57;;;;;;;1.63;1.20;;;23.70;69.90;;;;;;4428726;28;652159;-66
2022/07/13 10:08:44;;;;;;;1.50;1.13;;;23.90;70.40;;;;;;4439773;28;652657;-65
2022/07/13 10:11:31;;;;;;;2.80;0.90;;;24.80;66.90;;;;;;4420662;28;652272;-66
2022/07/13 10:14:19;;;;;;;1.70;0.75;;;24.90;64.60;;;;;;4439328;28;654083;-65
2022/07/13 10:17:07;;;;;;;1.30;0.80;;;24.70;65.80;;;;;;4420676;28;652757;-66
2022/07/13 10:20:00;;;;;;;1.15;0.70;;;24.60;62.70;;;;;;4439217;28;653143;-65
2022/07/13 10:22:49;;;;;;;4.28;0.90;;;24.90;61.50;;;;;;4393461;28;652686;-65
2022/07/13 10:25:42;;;;;;;19.40;1.17;;;25.20;62.30;;;;;;4420340;28;652759;-65
2022/07/13 10:28:30;;;;;;;1.58;0.82;;;25.30;58.50;;;;;;4411380;28;653990;-66
2022/07/13 10:31:36;;;;;;;1.75;0.70;;;25.00;61.60;;;;;;4442983;28;652813;-65
2022/07/13 10:34:23;;;;;;;4.25;1.00;;;24.90;63.10;;;;;;4416815;28;652751;-65
2022/07/13 10:37:10;;;;;;;1.70;0.80;;;24.90;61.50;;;;;;4427907;28;652309;-66
2022/07/13 10:40:14;;;;;;;1.20;0.77;;;24.50;63.70;;;;;;4442579;28;653144;-65
2022/07/13 10:43:12;;;;;;;3.90;0.80;;;24.90;62.70;;;;;;4394049;28;653039;-66
2022/07/13 10:46:00;;;;;;;1.52;0.77;;;24.60;60.70;;;;;;4416080;28;652280;-66
2022/07/13 10:48:48;;;;;;;3.03;0.70;;;24.90;61.80;;;;;;4443046;28;653248;-65
2022/07/13 10:51:35;;;;;;;4.10;0.70;;;24.60;59.90;;;;;;4420353;28;652251;-65
2022/07/13 10:54:22;;;;;;;5.75;0.80;;;24.20;62.40;;;;;;4442319;28;652033;-65
2022/07/13 10:57:15;;;;;;;1.33;1.02;;;24.60;62.90;;;;;;4438156;28;652606;-65
2022/07/13 11:00:03;;;;;;;2.97;1.02;;;24.90;63.50;;;;;;4393487;28;653162;-65
2022/07/13 11:02:51;;;;;;;0.70;0.70;;;25.30;61.20;;;;;;4418607;28;652451;-65
2022/07/13 11:05:38;;;;;;;3.53;0.80;;;25.80;58.40;;;;;;4439195;28;652971;-66
2022/07/13 11:08:25;;;;;;;1.67;0.90;;;26.10;58.20;;;;;;4419718;28;652441;-65
2022/07/13 11:11:13;;;;;;;1.67;0.70;;;25.80;57.00;;;;;;4438334;28;653437;-65
2022/07/13 11:14:02;;;;;;;3.42;0.90;;;26.50;57.80;;;;;;4419623;28;652588;-66
2022/07/13 11:16:50;;;;;;;4.88;0.85;;;26.20;56.20;;;;;;4437415;28;652602;-65
2022/07/13 11:19:56;;;;;;;0.80;0.80;;;25.50;61.30;;;;;;4415826;28;653911;-66
2022/07/13 11:26:02;;;;;;;2.72;0.65;;;25.90;56.80;;;;;;4392559;28;652892;-65
2022/07/13 11:28:54;;;;;;;3.30;1.00;;;25.50;56.00;;;;;;4434450;28;653365;-65
2022/07/13 11:31:43;;;;;;;1.58;0.60;;;26.40;57.20;;;;;;4417920;28;653433;-65
2022/07/13 11:34:30;;;;;;;0.60;0.60;;;25.20;56.70;;;;;;4420558;28;653527;-65
2022/07/13 11:37:23;;;;;;;1.50;0.70;;;24.80;60.20;;;;;;4440326;28;653891;-65
2022/07/13 11:40:11;;;;;;;0.73;0.73;;;24.60;58.00;;;;;;4406340;28;653579;-66
2022/07/13 11:43:02;;;;;;;0.60;0.60;;;24.80;55.90;;;;;;4436285;28;653526;-64
2022/07/13 11:45:49;;;;;;;0.90;0.85;;;25.50;58.00;;;;;;4414086;28;653992;-64
2022/07/13 11:48:37;;;;;;;1.35;0.85;;;26.00;54.50;;;;;;4417846;28;653705;-65
2022/07/13 11:51:24;;;;;;;0.73;0.73;;;25.70;56.40;;;;;;4436280;28;654022;-64
2022/07/13 11:54:13;;;;;;;0.60;0.60;;;25.70;54.60;;;;;;4413701;28;653839;-65
2022/07/13 11:57:00;;;;;;;1.77;0.52;;;26.00;55.30;;;;;;4417516;28;653680;-66
2022/07/13 11:59:47;;;;;;;2.90;0.73;;;26.20;52.90;;;;;;4440282;28;654404;-65
2022/07/13 12:02:36;;;;;;;2.72;0.60;;;26.00;51.90;;;;;;4435088;28;653303;-66
2022/07/13 12:05:26;;;;;;;0.68;0.60;;;25.50;53.10;;;;;;4436712;28;654497;-64
2022/07/13 12:08:13;;;;;;;1.95;0.77;;;25.30;54.70;;;;;;4413803;28;653801;-65
2022/07/13 12:11:04;;;;;;;0.85;0.70;;;25.60;53.70;;;;;;4421439;28;653446;-66
2022/07/13 12:13:51;;;;;;;2.50;0.73;;;26.20;53.70;;;;;;4417536;28;653553;-66
2022/07/13 12:16:38;;;;;;;1.08;0.50;;;26.80;51.70;;;;;;4435732;28;654437;-65
2022/07/13 12:19:25;;;;;;;4.57;0.73;;;27.10;50.00;;;;;;4417043;28;653064;-66
2022/07/13 12:22:14;;;;;;;5.60;0.80;;;27.70;48.90;;;;;;4435714;28;654632;-65
2022/07/13 12:25:01;;;;;;;4.00;0.60;;;27.60;52.30;;;;;;4417365;28;653636;-66
2022/07/13 12:27:52;;;;;;;1.42;0.82;;;26.80;49.20;;;;;;4435937;28;655071;-65
2022/07/13 12:30:55;;;;;;;1.63;0.90;;;26.20;50.90;;;;;;4413661;28;653583;-65
2022/07/13 12:33:44;;;;;;;1.30;0.68;;;26.40;50.90;;;;;;4390977;28;654140;-65
2022/07/13 12:36:32;;;;;;;1.48;0.70;;;26.30;49.60;;;;;;4417453;28;653814;-65
2022/07/13 12:39:21;;;;;;;2.40;0.70;;;26.80;49.40;;;;;;4435645;28;653669;-65
2022/07/13 12:42:08;;;;;;;1.13;0.77;;;26.30;49.50;;;;;;4413183;28;653905;-65
2022/07/13 12:44:55;;;;;;;2.67;0.90;;;25.30;52.00;;;;;;4417000;28;653276;-65
2022/07/13 12:47:42;;;;;;;1.00;0.80;;;25.80;52.80;;;;;;4436006;28;655060;-65
2022/07/13 12:50:30;;;;;;;0.90;0.63;;;26.00;53.30;;;;;;4435740;28;653258;-65
2022/07/13 12:53:17;;;;;;;1.27;0.80;;;27.00;52.60;;;;;;4417531;28;654309;-65
2022/07/13 12:56:06;;;;;;;3.83;0.70;;;26.50;51.30;;;;;;4435549;28;653772;-64
2022/07/13 12:58:54;;;;;;;1.27;0.73;;;26.30;52.40;;;;;;4413085;28;654279;-65
2022/07/13 13:01:41;;;;;;;5.63;0.80;;;26.60;52.30;;;;;;4417096;28;653440;-66
2022/07/13 13:04:29;;;;;;;2.60;1.10;;;26.30;50.40;;;;;;4435881;28;655154;-65
2022/07/13 13:07:17;;;;;;;2.15;0.90;;;26.10;50.20;;;;;;4417488;28;653400;-65
2022/07/13 13:10:04;;;;;;;1.55;0.70;;;25.50;53.80;;;;;;4434849;28;654382;-64
2022/07/13 13:12:53;;;;;;;1.75;0.93;;;26.40;52.20;;;;;;4414270;28;653327;-65
2022/07/13 13:15:40;;;;;;;3.50;0.70;;;25.40;53.00;;;;;;4427245;28;653130;-65
2022/07/13 13:18:27;;;;;;;2.60;0.95;;;25.80;53.80;;;;;;4439605;28;653432;-64
2022/07/13 13:21:14;;;;;;;0.70;0.70;;;25.70;53.90;;;;;;4435548;28;653931;-64
2022/07/13 13:24:06;;;;;;;0.55;0.55;;;26.40;53.20;;;;;;4415993;28;655102;-64
2022/07/13 13:26:53;;;;;;;2.22;0.95;;;26.60;54.00;;;;;;4413807;28;655596;-65
2022/07/13 13:32:46;;;;;;;1.50;0.73;;;26.60;51.90;;;;;;4392118;28;655899;-65
2022/07/13 13:35:33;;;;;;;2.92;0.90;;;27.10;53.40;;;;;;4438052;28;655444;-65
2022/07/13 13:38:21;;;;;;;0.80;0.75;;;26.70;52.20;;;;;;4418898;28;654625;-64
2022/07/13 13:41:08;;;;;;;2.20;1.23;;;27.10;52.80;;;;;;4437936;28;655047;-64
2022/07/13 13:43:55;;;;;;;4.00;1.00;;;27.00;53.40;;;;;;4420468;28;654728;-65
2022/07/13 13:46:44;;;;;;;2.63;1.10;;;27.00;53.40;;;;;;4441589;28;655857;-65
2022/07/13 13:49:31;;;;;;;1.40;0.95;;;26.60;53.10;;;;;;4418452;28;654519;-65
2022/07/13 13:52:18;;;;;;;3.63;1.00;;;26.50;54.00;;;;;;4436191;28;656291;-64
2022/07/13 13:55:06;;;;;;;1.85;0.90;;;26.20;53.50;;;;;;4422114;28;654757;-66
2022/07/13 13:57:53;;;;;;;0.85;0.65;;;27.20;55.50;;;;;;4437286;28;654856;-65
2022/07/13 14:00:40;;;;;;;1.10;1.00;;;27.50;51.80;;;;;;4428717;28;654532;-66
2022/07/13 14:03:29;;;;;;;2.97;1.00;;;26.50;52.00;;;;;;4441231;28;654645;-65
2022/07/13 14:06:16;;;;;;;1.02;0.93;;;27.00;53.40;;;;;;4418581;28;654671;-65
2022/07/13 14:09:03;;;;;;;9.38;1.00;;;27.50;53.50;;;;;;4437031;28;656047;-65
2022/07/13 14:11:50;;;;;;;1.35;1.20;;;27.50;50.30;;;;;;4418238;28;654351;-65
2022/07/13 14:14:37;;;;;;;1.15;0.98;;;27.70;55.50;;;;;;4436669;28;655369;-64
2022/07/13 14:17:25;;;;;;;1.20;1.00;;;28.00;50.30;;;;;;4435998;28;654581;-66
2022/07/13 14:20:14;;;;;;;2.45;1.27;;;28.20;50.90;;;;;;4441503;28;655050;-65
2022/07/13 14:23:01;;;;;;;1.27;1.05;;;28.60;49.90;;;;;;4417991;28;654427;-65
2022/07/13 14:25:48;;;;;;;1.08;0.98;;;27.30;51.40;;;;;;4440017;28;655696;-65
2022/07/13 14:28:35;;;;;;;4.32;0.90;;;26.90;52.30;;;;;;4417883;28;653997;-65
2022/07/13 14:31:23;;;;;;;2.45;1.15;;;26.50;52.40;;;;;;4436266;28;655703;-64
2022/07/13 14:34:11;;;;;;;2.95;1.00;;;25.80;54.40;;;;;;4429479;28;654918;-65
2022/07/13 14:37:00;;;;;;;1.35;0.90;;;25.40;54.90;;;;;;4436559;28;656203;-64